This is the latest recevied weather packets stored in our database for station/object OE3XAM-13. If no packets are shown the sender has not sent any weather packets the latest 10 day(s).
| Time | Temp. | Humidity | Pressure | Rain* | Wind** | Luminosity | Snow |
|---|---|---|---|---|---|---|---|
| 1777939888 | 13.33° C | 64% | 974 hPa | 0 mm | - | - | - |
| 1777938088 | 13.89° C | 61% | 974 hPa | 0 mm | - | - | - |
| 1777936288 | 13.89° C | 59% | 974 hPa | 0 mm | - | - | - |
| 1777934488 | 13.89° C | 59% | 974 hPa | 0 mm | - | - | - |
| 1777932688 | 14.44° C | 56% | 975 hPa | 0 mm | - | - | - |
| 1777930888 | 15.56° C | 54% | 974 hPa | 0 mm | - | - | - |
| 1777929088 | 16.11° C | 51% | 974 hPa | 0 mm | - | - | - |
| 1777927288 | 16.67° C | 49% | 974 hPa | 0 mm | - | - | - |
| 1777925488 | 16.67° C | 48% | 974 hPa | 0 mm | - | - | - |
| 1777923688 | 17.78° C | 46% | 974 hPa | 0 mm | - | - | - |
| 1777921888 | 18.33° C | 43% | 974 hPa | 0 mm | - | - | - |
| 1777920088 | 19.44° C | 40% | 973 hPa | 0 mm | - | - | - |
| 1777918288 | 21.11° C | 37% | 974 hPa | 0 mm | - | - | - |
| 1777916488 | 22.78° C | 34% | 974 hPa | 0 mm | - | - | - |
| 1777914688 | 24.44° C | 30% | 974 hPa | 0 mm | - | - | - |
| 1777912888 | 26.67° C | 26% | 974 hPa | 0 mm | - | - | - |
| 1777911088 | 28.33° C | 24% | 974 hPa | 0 mm | - | - | - |
| 1777909288 | 28.89° C | 23% | 974 hPa | 0 mm | - | - | - |
| 1777907488 | 29.44° C | 22% | 974 hPa | 0 mm | - | - | - |
| 1777905688 | 30° C | 22% | 975 hPa | 0 mm | - | - | - |
| 1777903888 | 29.44° C | 22% | 975 hPa | 0 mm | - | - | - |
| 1777902088 | 29.44° C | 22% | 975 hPa | 0 mm | - | - | - |
| 1777900288 | 29.44° C | 22% | 976 hPa | 0 mm | - | - | - |
| 1777898488 | 28.89° C | 24% | 976 hPa | 0 mm | - | - | - |
| 1777896688 | 28.33° C | 27% | 977 hPa | 0 mm | - | - | - |
* Rain latest hour (hover to see other rain measurements)
** Current wind speed in m/s (hover to see current wind gust speed)